sensor_id;sensor_type;location;lat;lon;timestamp;pressure;altitude;pressure_sealevel;temperature;humidity
41140;BME280;26881;48.784;9.192;2023-11-22T00:00:11;98869.81;;;7.84;100.00
41140;BME280;26881;48.784;9.192;2023-11-22T00:05:34;98878.63;;;7.81;100.00
41140;BME280;26881;48.784;9.192;2023-11-22T00:10:56;98889.47;;;7.70;100.00
41140;BME280;26881;48.784;9.192;2023-11-22T00:16:18;98891.69;;;7.59;100.00
41140;BME280;26881;48.784;9.192;2023-11-22T00:21:39;98902.50;;;7.28;100.00
41140;BME280;26881;48.784;9.192;2023-11-22T00:27:01;98914.66;;;7.05;100.00
41140;BME280;26881;48.784;9.192;2023-11-22T00:32:24;98913.56;;;6.89;100.00
41140;BME280;26881;48.784;9.192;2023-11-22T00:37:46;98908.53;;;6.84;100.00
41140;BME280;26881;48.784;9.192;2023-11-22T00:43:08;98932.28;;;6.75;100.00
41140;BME280;26881;48.784;9.192;2023-11-22T00:48:30;98939.28;;;6.73;100.00
41140;BME280;26881;48.784;9.192;2023-11-22T00:53:52;98940.56;;;6.63;100.00
41140;BME280;26881;48.784;9.192;2023-11-22T00:59:14;98955.47;;;6.58;100.00
41140;BME280;26881;48.784;9.192;2023-11-22T01:04:36;98960.41;;;6.40;100.00
41140;BME280;26881;48.784;9.192;2023-11-22T01:09:58;98975.22;;;6.38;100.00
41140;BME280;26881;48.784;9.192;2023-11-22T01:15:21;98973.69;;;6.32;100.00
41140;BME280;26881;48.784;9.192;2023-11-22T01:20:43;98982.75;;;6.21;100.00
41140;BME280;26881;48.784;9.192;2023-11-22T01:26:06;98985.78;;;6.08;100.00
41140;BME280;26881;48.784;9.192;2023-11-22T01:31:28;98991.34;;;5.98;100.00
41140;BME280;26881;48.784;9.192;2023-11-22T01:36:50;98996.78;;;5.88;100.00
41140;BME280;26881;48.784;9.192;2023-11-22T01:42:12;99007.38;;;5.82;100.00
41140;BME280;26881;48.784;9.192;2023-11-22T01:47:35;99008.44;;;5.77;100.00
41140;BME280;26881;48.784;9.192;2023-11-22T01:52:58;99018.78;;;5.78;100.00
41140;BME280;26881;48.784;9.192;2023-11-22T01:58:20;99037.94;;;5.74;100.00
41140;BME280;26881;48.784;9.192;2023-11-22T02:03:42;99047.03;;;5.59;100.00
41140;BME280;26881;48.784;9.192;2023-11-22T02:09:06;99047.13;;;5.56;100.00
41140;BME280;26881;48.784;9.192;2023-11-22T02:14:34;99066.34;;;5.51;100.00
41140;BME280;26881;48.784;9.192;2023-11-22T02:19:56;99082.19;;;5.41;100.00
41140;BME280;26881;48.784;9.192;2023-11-22T02:25:18;99080.56;;;5.37;100.00
41140;BME280;26881;48.784;9.192;2023-11-22T02:30:41;99084.84;;;5.38;100.00
41140;BME280;26881;48.784;9.192;2023-11-22T02:36:03;99099.81;;;5.30;98.13
41140;BME280;26881;48.784;9.192;2023-11-22T02:41:27;99092.84;;;5.32;100.00
41140;BME280;26881;48.784;9.192;2023-11-22T02:46:51;99097.13;;;5.33;100.00
41140;BME280;26881;48.784;9.192;2023-11-22T02:52:14;99109.53;;;5.22;100.00
41140;BME280;26881;48.784;9.192;2023-11-22T02:57:39;99115.78;;;5.15;97.78
41140;BME280;26881;48.784;9.192;2023-11-22T03:03:02;99126.25;;;5.12;97.87
41140;BME280;26881;48.784;9.192;2023-11-22T03:08:25;99127.06;;;5.14;97.07
41140;BME280;26881;48.784;9.192;2023-11-22T03:13:48;99130.88;;;5.00;95.52
41140;BME280;26881;48.784;9.192;2023-11-22T03:19:11;99136.91;;;5.01;94.59
41140;BME280;26881;48.784;9.192;2023-11-22T03:24:35;99150.06;;;4.95;93.98
41140;BME280;26881;48.784;9.192;2023-11-22T03:29:59;99157.16;;;4.88;93.91
41140;BME280;26881;48.784;9.192;2023-11-22T03:35:21;99163.31;;;4.82;93.76
41140;BME280;26881;48.784;9.192;2023-11-22T03:40:43;99179.91;;;4.75;94.25
41140;BME280;26881;48.784;9.192;2023-11-22T03:46:05;99188.63;;;4.73;90.38
41140;BME280;26881;48.784;9.192;2023-11-22T03:51:27;99191.19;;;4.74;91.28
41140;BME280;26881;48.784;9.192;2023-11-22T03:56:49;99203.41;;;4.69;89.55
41140;BME280;26881;48.784;9.192;2023-11-22T04:02:11;99214.53;;;4.73;94.75
41140;BME280;26881;48.784;9.192;2023-11-22T04:07:32;99201.56;;;4.74;89.81
41140;BME280;26881;48.784;9.192;2023-11-22T04:12:55;99204.25;;;4.70;89.51
41140;BME280;26881;48.784;9.192;2023-11-22T04:18:17;99212.00;;;4.71;93.37
41140;BME280;26881;48.784;9.192;2023-11-22T04:23:39;99220.72;;;4.69;91.20
41140;BME280;26881;48.784;9.192;2023-11-22T04:29:01;99225.00;;;4.68;91.31
41140;BME280;26881;48.784;9.192;2023-11-22T04:34:23;99231.09;;;4.67;93.36
41140;BME280;26881;48.784;9.192;2023-11-22T04:39:45;99242.34;;;4.66;91.30
41140;BME280;26881;48.784;9.192;2023-11-22T04:45:11;99247.56;;;4.64;93.69
41140;BME280;26881;48.784;9.192;2023-11-22T04:50:33;99258.97;;;4.57;94.17
41140;BME280;26881;48.784;9.192;2023-11-22T04:55:55;99264.19;;;4.56;93.97
41140;BME280;26881;48.784;9.192;2023-11-22T05:01:17;99254.66;;;4.56;92.37
41140;BME280;26881;48.784;9.192;2023-11-22T05:06:42;99271.06;;;4.57;91.41
41140;BME280;26881;48.784;9.192;2023-11-22T05:12:05;99285.75;;;4.56;92.48
41140;BME280;26881;48.784;9.192;2023-11-22T05:17:28;99295.28;;;4.56;87.96
41140;BME280;26881;48.784;9.192;2023-11-22T05:22:50;99303.25;;;4.47;85.27
41140;BME280;26881;48.784;9.192;2023-11-22T05:28:12;99311.09;;;4.43;87.17
41140;BME280;26881;48.784;9.192;2023-11-22T05:33:34;99317.84;;;4.51;88.78
41140;BME280;26881;48.784;9.192;2023-11-22T05:38:56;99311.81;;;4.50;91.59
41140;BME280;26881;48.784;9.192;2023-11-22T05:44:21;99309.25;;;4.49;90.57
41140;BME280;26881;48.784;9.192;2023-11-22T05:49:43;99308.41;;;4.48;90.61
41140;BME280;26881;48.784;9.192;2023-11-22T05:55:06;99319.00;;;4.36;90.88
41140;BME280;26881;48.784;9.192;2023-11-22T06:00:30;99325.91;;;4.37;90.29
41140;BME280;26881;48.784;9.192;2023-11-22T06:05:52;99339.78;;;4.34;91.38
41140;BME280;26881;48.784;9.192;2023-11-22T06:11:14;99355.41;;;4.31;92.89
41140;BME280;26881;48.784;9.192;2023-11-22T06:16:37;99360.72;;;4.23;88.68
41140;BME280;26881;48.784;9.192;2023-11-22T06:21:59;99370.25;;;4.21;89.64
41140;BME280;26881;48.784;9.192;2023-11-22T06:27:23;99381.59;;;4.16;91.40
41140;BME280;26881;48.784;9.192;2023-11-22T06:32:45;99391.94;;;4.16;91.24
41140;BME280;26881;48.784;9.192;2023-11-22T06:38:07;99390.28;;;4.13;91.35
41140;BME280;26881;48.784;9.192;2023-11-22T06:43:29;99390.28;;;4.13;91.16
41140;BME280;26881;48.784;9.192;2023-11-22T06:48:51;99399.72;;;4.14;89.04
41140;BME280;26881;48.784;9.192;2023-11-22T06:54:13;99403.97;;;4.18;87.15
41140;BME280;26881;48.784;9.192;2023-11-22T06:59:35;99421.34;;;4.13;85.54
41140;BME280;26881;48.784;9.192;2023-11-22T07:04:57;99416.22;;;4.10;84.94
41140;BME280;26881;48.784;9.192;2023-11-22T07:10:21;99429.47;;;3.93;82.41
41140;BME280;26881;48.784;9.192;2023-11-22T07:15:44;99420.84;;;3.93;82.00
41140;BME280;26881;48.784;9.192;2023-11-22T07:21:06;99442.50;;;3.89;82.83
41140;BME280;26881;48.784;9.192;2023-11-22T07:26:28;99446.81;;;3.88;83.36
41140;BME280;26881;48.784;9.192;2023-11-22T07:31:49;99461.50;;;3.86;82.02
41140;BME280;26881;48.784;9.192;2023-11-22T07:37:13;99473.75;;;3.76;79.97
41140;BME280;26881;48.784;9.192;2023-11-22T07:42:36;99491.81;;;3.79;79.38
41140;BME280;26881;48.784;9.192;2023-11-22T07:47:58;99499.78;;;3.67;79.04
41140;BME280;26881;48.784;9.192;2023-11-22T07:53:21;99501.59;;;3.61;80.11
41140;BME280;26881;48.784;9.192;2023-11-22T07:58:43;99494.75;;;3.58;80.87
41140;BME280;26881;48.784;9.192;2023-11-22T08:04:05;99499.94;;;3.58;81.48
41140;BME280;26881;48.784;9.192;2023-11-22T08:09:28;99501.59;;;3.64;82.84
41140;BME280;26881;48.784;9.192;2023-11-22T08:14:54;99502.44;;;3.64;81.09
41140;BME280;26881;48.784;9.192;2023-11-22T08:20:18;99506.84;;;3.56;80.84
41140;BME280;26881;48.784;9.192;2023-11-22T08:25:41;99506.78;;;3.61;80.80
41140;BME280;26881;48.784;9.192;2023-11-22T08:31:05;99509.44;;;3.57;80.51
41140;BME280;26881;48.784;9.192;2023-11-22T08:36:33;99516.44;;;3.49;80.02
41140;BME280;26881;48.784;9.192;2023-11-22T08:41:58;99516.41;;;3.51;80.49
41140;BME280;26881;48.784;9.192;2023-11-22T08:47:20;99519.97;;;3.45;80.92
41140;BME280;26881;48.784;9.192;2023-11-22T08:52:42;99524.31;;;3.43;81.66
41140;BME280;26881;48.784;9.192;2023-11-22T08:58:06;99523.44;;;3.43;81.34
41140;BME280;26881;48.784;9.192;2023-11-22T09:03:30;99530.25;;;3.48;81.91
41140;BME280;26881;48.784;9.192;2023-11-22T09:08:52;99523.34;;;3.49;80.67
41140;BME280;26881;48.784;9.192;2023-11-22T09:14:13;99518.94;;;3.54;78.95
41140;BME280;26881;48.784;9.192;2023-11-22T09:19:35;99519.75;;;3.59;76.50
41140;BME280;26881;48.784;9.192;2023-11-22T09:24:57;99525.91;;;3.50;79.81
41140;BME280;26881;48.784;9.192;2023-11-22T09:30:21;99522.50;;;3.48;78.31
41140;BME280;26881;48.784;9.192;2023-11-22T09:36:04;99530.06;;;3.61;80.62
41140;BME280;26881;48.784;9.192;2023-11-22T09:41:30;99527.38;;;3.67;77.99
41140;BME280;26881;48.784;9.192;2023-11-22T09:46:55;99530.75;;;3.73;77.57
41140;BME280;26881;48.784;9.192;2023-11-22T09:52:21;99550.63;;;3.68;78.40
41140;BME280;26881;48.784;9.192;2023-11-22T09:57:48;99555.97;;;3.59;79.61
41140;BME280;26881;48.784;9.192;2023-11-22T10:03:13;99576.50;;;3.70;79.22
41140;BME280;26881;48.784;9.192;2023-11-22T10:08:36;99583.25;;;3.78;78.49
41140;BME280;26881;48.784;9.192;2023-11-22T10:14:00;99582.50;;;3.70;77.70
41140;BME280;26881;48.784;9.192;2023-11-22T10:19:21;99591.00;;;3.80;78.97
41140;BME280;26881;48.784;9.192;2023-11-22T10:24:43;99580.69;;;3.77;76.64
41140;BME280;26881;48.784;9.192;2023-11-22T10:30:06;99582.44;;;3.75;78.68
41140;BME280;26881;48.784;9.192;2023-11-22T10:35:29;99581.50;;;3.80;76.94
41140;BME280;26881;48.784;9.192;2023-11-22T10:40:54;99575.63;;;3.69;77.40
41140;BME280;26881;48.784;9.192;2023-11-22T10:46:16;99581.53;;;3.79;78.60
41140;BME280;26881;48.784;9.192;2023-11-22T10:51:40;99586.81;;;3.71;76.88
41140;BME280;26881;48.784;9.192;2023-11-22T10:57:03;99581.59;;;3.74;77.74
41140;BME280;26881;48.784;9.192;2023-11-22T11:02:27;99592.56;;;3.92;79.52
41140;BME280;26881;48.784;9.192;2023-11-22T11:07:55;99596.13;;;3.83;75.77
41140;BME280;26881;48.784;9.192;2023-11-22T11:13:18;99606.22;;;4.00;77.35
41140;BME280;26881;48.784;9.192;2023-11-22T11:18:40;99608.16;;;3.86;75.84
41140;BME280;26881;48.784;9.192;2023-11-22T11:24:02;99601.09;;;3.97;77.27
41140;BME280;26881;48.784;9.192;2023-11-22T11:29:33;99611.25;;;4.09;77.52
41140;BME280;26881;48.784;9.192;2023-11-22T11:34:55;99610.34;;;4.12;75.07
41140;BME280;26881;48.784;9.192;2023-11-22T11:40:31;99601.94;;;3.97;77.56
41140;BME280;26881;48.784;9.192;2023-11-22T11:45:53;99599.44;;;3.91;78.42
41140;BME280;26881;48.784;9.192;2023-11-22T11:51:16;99608.81;;;3.98;77.30
41140;BME280;26881;48.784;9.192;2023-11-22T11:56:39;99626.13;;;3.96;78.17
41140;BME280;26881;48.784;9.192;2023-11-22T12:02:01;99636.44;;;3.98;75.48
41140;BME280;26881;48.784;9.192;2023-11-22T12:07:23;99636.56;;;3.90;75.68
41140;BME280;26881;48.784;9.192;2023-11-22T12:12:45;99650.34;;;3.92;79.60
41140;BME280;26881;48.784;9.192;2023-11-22T12:18:09;99654.59;;;3.96;78.77
41140;BME280;26881;48.784;9.192;2023-11-22T12:23:32;99670.91;;;4.01;77.82
41140;BME280;26881;48.784;9.192;2023-11-22T12:28:55;99670.91;;;4.01;77.22
41140;BME280;26881;48.784;9.192;2023-11-22T12:34:26;99684.72;;;4.00;77.76
41140;BME280;26881;48.784;9.192;2023-11-22T12:39:48;99681.59;;;3.78;76.71
41140;BME280;26881;48.784;9.192;2023-11-22T12:45:24;99675.44;;;3.87;78.31
41140;BME280;26881;48.784;9.192;2023-11-22T12:50:46;99654.66;;;3.92;75.82
41140;BME280;26881;48.784;9.192;2023-11-22T12:56:08;99662.50;;;3.87;78.21
41140;BME280;26881;48.784;9.192;2023-11-22T13:01:30;99665.03;;;3.90;77.75
41140;BME280;26881;48.784;9.192;2023-11-22T13:06:52;99649.50;;;3.92;74.93
41140;BME280;26881;48.784;9.192;2023-11-22T13:12:15;99656.50;;;3.85;76.82
41140;BME280;26881;48.784;9.192;2023-11-22T13:17:38;99645.25;;;3.86;77.31
41140;BME280;26881;48.784;9.192;2023-11-22T13:23:01;99649.50;;;3.89;76.96
41140;BME280;26881;48.784;9.192;2023-11-22T13:28:24;99660.66;;;3.94;78.76
41140;BME280;26881;48.784;9.192;2023-11-22T13:33:47;99677.97;;;3.92;75.90
41140;BME280;26881;48.784;9.192;2023-11-22T13:39:09;99674.28;;;4.05;78.66
41140;BME280;26881;48.784;9.192;2023-11-22T13:44:31;99669.13;;;4.05;75.46
41140;BME280;26881;48.784;9.192;2023-11-22T13:49:53;99661.47;;;3.97;78.72
41140;BME280;26881;48.784;9.192;2023-11-22T13:55:15;99652.94;;;3.92;77.06
41140;BME280;26881;48.784;9.192;2023-11-22T14:00:39;99656.44;;;3.88;77.90
41140;BME280;26881;48.784;9.192;2023-11-22T14:06:02;99656.50;;;3.85;78.83
41140;BME280;26881;48.784;9.192;2023-11-22T14:11:26;99652.16;;;3.87;78.49
41140;BME280;26881;48.784;9.192;2023-11-22T14:16:48;99675.56;;;3.78;77.03
41140;BME280;26881;48.784;9.192;2023-11-22T14:22:10;99671.41;;;3.65;73.86
41140;BME280;26881;48.784;9.192;2023-11-22T14:27:32;99681.81;;;3.62;73.85
41140;BME280;26881;48.784;9.192;2023-11-22T14:32:55;99703.41;;;3.59;74.46
41140;BME280;26881;48.784;9.192;2023-11-22T14:38:17;99707.69;;;3.62;76.24
41140;BME280;26881;48.784;9.192;2023-11-22T14:43:40;99707.63;;;3.65;77.62
41140;BME280;26881;48.784;9.192;2023-11-22T14:49:02;99699.00;;;3.66;77.25
41140;BME280;26881;48.784;9.192;2023-11-22T14:54:24;99688.69;;;3.61;74.51
41140;BME280;26881;48.784;9.192;2023-11-22T14:59:46;99694.88;;;3.49;75.32
41140;BME280;26881;48.784;9.192;2023-11-22T15:05:08;99687.19;;;3.45;77.26
41140;BME280;26881;48.784;9.192;2023-11-22T15:10:33;99679.47;;;3.40;75.57
41140;BME280;26881;48.784;9.192;2023-11-22T15:15:55;99677.88;;;3.30;70.52
41140;BME280;26881;48.784;9.192;2023-11-22T15:21:18;99685.78;;;3.17;72.91
41140;BME280;26881;48.784;9.192;2023-11-22T15:26:40;99688.34;;;3.19;73.91
41140;BME280;26881;48.784;9.192;2023-11-22T15:32:02;99703.00;;;3.19;73.13
41140;BME280;26881;48.784;9.192;2023-11-22T15:37:24;99698.63;;;3.25;73.25
41140;BME280;26881;48.784;9.192;2023-11-22T15:42:46;99715.03;;;3.23;75.15
41140;BME280;26881;48.784;9.192;2023-11-22T15:48:08;99697.78;;;3.23;76.96
41140;BME280;26881;48.784;9.192;2023-11-22T15:53:30;99719.31;;;3.25;75.46
41140;BME280;26881;48.784;9.192;2023-11-22T15:58:52;99721.94;;;3.22;75.35
41140;BME280;26881;48.784;9.192;2023-11-22T16:04:16;99731.47;;;3.17;72.41
41140;BME280;26881;48.784;9.192;2023-11-22T16:09:38;99733.19;;;3.16;74.90
41140;BME280;26881;48.784;9.192;2023-11-22T16:15:05;99738.19;;;3.33;76.04
41140;BME280;26881;48.784;9.192;2023-11-22T16:20:27;99739.84;;;3.39;74.92
41140;BME280;26881;48.784;9.192;2023-11-22T16:25:49;99735.63;;;3.32;73.68
41140;BME280;26881;48.784;9.192;2023-11-22T16:31:11;99733.94;;;3.26;72.53
41140;BME280;26881;48.784;9.192;2023-11-22T16:36:35;99746.84;;;3.28;75.61
41140;BME280;26881;48.784;9.192;2023-11-22T16:41:57;99751.13;;;3.32;73.31
41140;BME280;26881;48.784;9.192;2023-11-22T16:47:19;99771.94;;;3.20;70.19
41140;BME280;26881;48.784;9.192;2023-11-22T16:52:41;99777.16;;;3.15;71.39
41140;BME280;26881;48.784;9.192;2023-11-22T16:58:05;99778.09;;;3.08;69.56
41140;BME280;26881;48.784;9.192;2023-11-22T17:03:27;99766.88;;;3.10;70.04
41140;BME280;26881;48.784;9.192;2023-11-22T17:08:50;99767.75;;;3.05;71.40
41140;BME280;26881;48.784;9.192;2023-11-22T17:14:11;99770.47;;;2.91;71.06
41140;BME280;26881;48.784;9.192;2023-11-22T17:19:33;99781.69;;;2.90;72.59
41140;BME280;26881;48.784;9.192;2023-11-22T17:24:56;99791.97;;;2.96;72.61
41140;BME280;26881;48.784;9.192;2023-11-22T17:30:19;99806.56;;;3.03;70.79
41140;BME280;26881;48.784;9.192;2023-11-22T17:35:41;99822.25;;;2.79;72.08
41140;BME280;26881;48.784;9.192;2023-11-22T17:41:03;99824.84;;;2.77;73.53
41140;BME280;26881;48.784;9.192;2023-11-22T17:46:25;99823.09;;;2.81;70.68
41140;BME280;26881;48.784;9.192;2023-11-22T17:51:48;99837.72;;;2.85;70.24
41140;BME280;26881;48.784;9.192;2023-11-22T17:57:16;99832.63;;;2.76;70.17
41140;BME280;26881;48.784;9.192;2023-11-22T18:02:38;99840.34;;;2.80;70.44
41140;BME280;26881;48.784;9.192;2023-11-22T18:08:00;99842.06;;;2.75;67.92
41140;BME280;26881;48.784;9.192;2023-11-22T18:13:23;99844.78;;;2.55;67.78
41140;BME280;26881;48.784;9.192;2023-11-22T18:18:45;99826.66;;;2.66;72.72
41140;BME280;26881;48.784;9.192;2023-11-22T18:24:07;99827.47;;;2.71;67.75
41140;BME280;26881;48.784;9.192;2023-11-22T18:29:31;99811.91;;;2.79;73.61
41140;BME280;26881;48.784;9.192;2023-11-22T18:34:54;99824.03;;;2.70;68.76
41140;BME280;26881;48.784;9.192;2023-11-22T18:40:16;99827.44;;;2.72;70.13
41140;BME280;26881;48.784;9.192;2023-11-22T18:45:38;99816.13;;;2.89;67.60
41140;BME280;26881;48.784;9.192;2023-11-22T18:51:00;99812.78;;;2.78;66.81
41140;BME280;26881;48.784;9.192;2023-11-22T18:56:22;99796.44;;;2.72;67.94
41140;BME280;26881;48.784;9.192;2023-11-22T19:01:45;99801.66;;;2.69;67.97
41140;BME280;26881;48.784;9.192;2023-11-22T19:07:08;99799.97;;;2.62;72.15
41140;BME280;26881;48.784;9.192;2023-11-22T19:12:30;99806.94;;;2.51;68.32
41140;BME280;26881;48.784;9.192;2023-11-22T19:17:52;99806.91;;;2.54;68.28
41140;BME280;26881;48.784;9.192;2023-11-22T19:23:15;99812.97;;;2.50;67.82
41140;BME280;26881;48.784;9.192;2023-11-22T19:28:37;99825.84;;;2.56;67.72
41140;BME280;26881;48.784;9.192;2023-11-22T19:33:58;99812.16;;;2.42;68.08
41140;BME280;26881;48.784;9.192;2023-11-22T19:39:20;99806.16;;;2.35;71.02
41140;BME280;26881;48.784;9.192;2023-11-22T19:44:43;99809.59;;;2.39;69.45
41140;BME280;26881;48.784;9.192;2023-11-22T19:50:06;99813.88;;;2.46;71.86
41140;BME280;26881;48.784;9.192;2023-11-22T19:55:28;99813.03;;;2.39;69.58
41140;BME280;26881;48.784;9.192;2023-11-22T20:00:50;99820.78;;;2.41;71.60
41140;BME280;26881;48.784;9.192;2023-11-22T20:06:12;99826.81;;;2.38;71.22
41140;BME280;26881;48.784;9.192;2023-11-22T20:11:35;99833.63;;;2.48;70.13
41140;BME280;26881;48.784;9.192;2023-11-22T20:16:57;99825.06;;;2.43;70.24
41140;BME280;26881;48.784;9.192;2023-11-22T20:22:19;99812.09;;;2.52;70.62
41140;BME280;26881;48.784;9.192;2023-11-22T20:27:40;99796.59;;;2.51;71.12
41140;BME280;26881;48.784;9.192;2023-11-22T20:33:02;99781.19;;;2.45;71.84
41140;BME280;26881;48.784;9.192;2023-11-22T20:38:25;99781.97;;;2.53;70.80
41140;BME280;26881;48.784;9.192;2023-11-22T20:43:47;99786.34;;;2.42;71.53
41140;BME280;26881;48.784;9.192;2023-11-22T20:49:09;99779.59;;;2.24;73.59
41140;BME280;26881;48.784;9.192;2023-11-22T20:54:32;99792.53;;;2.13;75.18
41140;BME280;26881;48.784;9.192;2023-11-22T20:59:54;99790.03;;;2.01;75.27
41140;BME280;26881;48.784;9.192;2023-11-22T21:05:16;99793.50;;;1.94;75.81
41140;BME280;26881;48.784;9.192;2023-11-22T21:10:38;99796.94;;;1.86;76.47
41140;BME280;26881;48.784;9.192;2023-11-22T21:16:04;99796.13;;;1.81;76.91
41140;BME280;26881;48.784;9.192;2023-11-22T21:21:29;99790.13;;;1.73;78.28
41140;BME280;26881;48.784;9.192;2023-11-22T21:26:51;99774.66;;;1.70;78.73
41140;BME280;26881;48.784;9.192;2023-11-22T21:32:15;99772.97;;;1.63;78.97
41140;BME280;26881;48.784;9.192;2023-11-22T21:37:36;99769.59;;;1.52;80.25
41140;BME280;26881;48.784;9.192;2023-11-22T21:42:58;99768.75;;;1.45;83.27
41140;BME280;26881;48.784;9.192;2023-11-22T21:48:20;99764.44;;;1.39;83.94
41140;BME280;26881;48.784;9.192;2023-11-22T21:53:42;99743.88;;;1.25;84.54
41140;BME280;26881;48.784;9.192;2023-11-22T21:59:06;99749.03;;;1.25;84.15
41140;BME280;26881;48.784;9.192;2023-11-22T22:04:28;99756.78;;;1.12;86.33
41140;BME280;26881;48.784;9.192;2023-11-22T22:09:49;99743.97;;;0.89;88.76
41140;BME280;26881;48.784;9.192;2023-11-22T22:15:11;99736.22;;;0.87;91.78
41140;BME280;26881;48.784;9.192;2023-11-22T22:20:33;99745.66;;;0.85;91.61
41140;BME280;26881;48.784;9.192;2023-11-22T22:26:11;99740.50;;;0.85;90.83
41140;BME280;26881;48.784;9.192;2023-11-22T22:31:37;99743.97;;;0.84;89.98
41140;BME280;26881;48.784;9.192;2023-11-22T22:36:59;99743.09;;;0.87;88.93
41140;BME280;26881;48.784;9.192;2023-11-22T22:42:21;99740.50;;;0.96;88.94
41140;BME280;26881;48.784;9.192;2023-11-22T22:47:43;99732.75;;;1.02;89.03
41140;BME280;26881;48.784;9.192;2023-11-22T22:53:05;99732.72;;;1.14;86.97
41140;BME280;26881;48.784;9.192;2023-11-22T22:58:28;99738.75;;;1.18;87.48
41140;BME280;26881;48.784;9.192;2023-11-22T23:03:50;99744.75;;;1.31;84.08
41140;BME280;26881;48.784;9.192;2023-11-22T23:09:12;99739.59;;;1.26;83.56
41140;BME280;26881;48.784;9.192;2023-11-22T23:14:36;99733.59;;;1.19;84.40
41140;BME280;26881;48.784;9.192;2023-11-22T23:19:58;99739.53;;;1.40;84.60
41140;BME280;26881;48.784;9.192;2023-11-22T23:25:20;99742.13;;;1.32;86.20
41140;BME280;26881;48.784;9.192;2023-11-22T23:30:43;99754.19;;;1.18;88.63
41140;BME280;26881;48.784;9.192;2023-11-22T23:36:05;99743.06;;;1.05;89.12
41140;BME280;26881;48.784;9.192;2023-11-22T23:41:30;99749.94;;;0.92;90.63
41140;BME280;26881;48.784;9.192;2023-11-22T23:46:55;99758.53;;;0.85;91.54
41140;BME280;26881;48.784;9.192;2023-11-22T23:52:17;99763.69;;;0.83;92.75
41140;BME280;26881;48.784;9.192;2023-11-22T23:57:39;99762.84;;;0.98;95.89
